sensor_id;sensor_type;location;lat;lon;timestamp;pressure;altitude;pressure_sealevel;temperature;humidity
14232;BME280;7200;52.194;9.900;2022-09-17T00:01:45;99623.88;;;11.55;100.00
14232;BME280;7200;52.194;9.900;2022-09-17T00:04:10;99626.06;;;11.47;100.00
14232;BME280;7200;52.194;9.900;2022-09-17T00:06:35;99620.00;;;11.45;100.00
14232;BME280;7200;52.194;9.900;2022-09-17T00:09:03;99628.81;;;11.45;100.00
14232;BME280;7200;52.194;9.900;2022-09-17T00:11:31;99637.81;;;11.41;100.00
14232;BME280;7200;52.194;9.900;2022-09-17T00:13:59;99642.94;;;11.44;100.00
14232;BME280;7200;52.194;9.900;2022-09-17T00:16:34;99640.44;;;11.41;100.00
14232;BME280;7200;52.194;9.900;2022-09-17T00:19:00;99644.66;;;11.45;100.00
14232;BME280;7200;52.194;9.900;2022-09-17T00:21:26;99646.97;;;11.52;100.00
14232;BME280;7200;52.194;9.900;2022-09-17T00:23:57;99660.25;;;11.50;100.00
14232;BME280;7200;52.194;9.900;2022-09-17T00:26:22;99651.56;;;11.48;100.00
14232;BME280;7200;52.194;9.900;2022-09-17T00:28:50;99657.47;;;11.53;100.00
14232;BME280;7200;52.194;9.900;2022-09-17T00:31:16;99646.13;;;11.51;100.00
14232;BME280;7200;52.194;9.900;2022-09-17T00:33:41;99646.19;;;11.49;100.00
14232;BME280;7200;52.194;9.900;2022-09-17T00:36:06;99647.81;;;11.52;100.00
14232;BME280;7200;52.194;9.900;2022-09-17T00:38:32;99652.19;;;11.53;100.00
14232;BME280;7200;52.194;9.900;2022-09-17T00:40:58;99655.66;;;11.54;100.00
14232;BME280;7200;52.194;9.900;2022-09-17T00:43:33;99658.22;;;11.55;100.00
14232;BME280;7200;52.194;9.900;2022-09-17T00:45:59;99654.97;;;11.50;100.00
14232;BME280;7200;52.194;9.900;2022-09-17T00:48:25;99665.53;;;11.50;100.00
14232;BME280;7200;52.194;9.900;2022-09-17T00:50:51;99657.69;;;11.48;100.00
14232;BME280;7200;52.194;9.900;2022-09-17T00:53:18;99651.22;;;11.54;100.00
14232;BME280;7200;52.194;9.900;2022-09-17T00:55:49;99657.69;;;11.48;100.00
14232;BME280;7200;52.194;9.900;2022-09-17T00:58:17;99665.53;;;11.50;100.00
14232;BME280;7200;52.194;9.900;2022-09-17T01:00:45;99669.19;;;11.47;100.00
14232;BME280;7200;52.194;9.900;2022-09-17T01:03:11;99658.63;;;11.47;100.00
14232;BME280;7200;52.194;9.900;2022-09-17T01:05:48;99658.56;;;11.49;100.00
14232;BME280;7200;52.194;9.900;2022-09-17T01:22:17;99667.66;;;11.43;100.00
14232;BME280;7200;52.194;9.900;2022-09-17T01:36:01;99662.75;;;11.36;100.00
14232;BME280;7200;52.194;9.900;2022-09-17T01:38:35;99664.47;;;11.37;100.00
14232;BME280;7200;52.194;9.900;2022-09-17T01:41:09;99656.88;;;11.30;100.00
14232;BME280;7200;52.194;9.900;2022-09-17T01:43:51;99673.56;;;11.31;100.00
14232;BME280;7200;52.194;9.900;2022-09-17T01:46:23;99672.53;;;11.34;100.00
14232;BME280;7200;52.194;9.900;2022-09-17T01:48:57;99671.38;;;11.39;100.00
14232;BME280;7200;52.194;9.900;2022-09-17T01:51:24;99673.16;;;11.39;100.00
14232;BME280;7200;52.194;9.900;2022-09-17T01:54:00;99673.25;;;11.37;100.00
14232;BME280;7200;52.194;9.900;2022-09-17T01:56:32;99667.13;;;11.37;100.00
14232;BME280;7200;52.194;9.900;2022-09-17T01:59:07;99662.94;;;11.33;100.00
14232;BME280;7200;52.194;9.900;2022-09-17T02:01:35;99662.16;;;11.30;100.00
14232;BME280;7200;52.194;9.900;2022-09-17T02:04:09;99676.91;;;11.35;100.00
14232;BME280;7200;52.194;9.900;2022-09-17T02:06:37;99675.28;;;11.32;100.00
14232;BME280;7200;52.194;9.900;2022-09-17T02:09:17;99668.22;;;11.33;100.00
14232;BME280;7200;52.194;9.900;2022-09-17T02:11:50;99666.66;;;11.28;100.00
14232;BME280;7200;52.194;9.900;2022-09-17T02:14:41;99668.34;;;11.29;100.00
14232;BME280;7200;52.194;9.900;2022-09-17T02:17:15;99659.34;;;11.34;100.00
14232;BME280;7200;52.194;9.900;2022-09-17T02:19:45;99657.41;;;11.37;100.00
14232;BME280;7200;52.194;9.900;2022-09-17T02:22:31;99663.22;;;11.44;100.00
14232;BME280;7200;52.194;9.900;2022-09-17T02:27:52;99647.72;;;11.38;100.00
14232;BME280;7200;52.194;9.900;2022-09-17T02:30:21;99658.16;;;11.39;100.00
14232;BME280;7200;52.194;9.900;2022-09-17T02:32:47;99657.16;;;11.42;100.00
14232;BME280;7200;52.194;9.900;2022-09-17T02:35:13;99662.38;;;11.43;100.00
14232;BME280;7200;52.194;9.900;2022-09-17T02:37:43;99657.00;;;11.45;100.00
14232;BME280;7200;52.194;9.900;2022-09-17T02:40:10;99660.31;;;11.48;100.00
14232;BME280;7200;52.194;9.900;2022-09-17T02:42:58;99660.94;;;11.54;100.00
14232;BME280;7200;52.194;9.900;2022-09-17T02:45:52;99665.06;;;11.59;100.00
14232;BME280;7200;52.194;9.900;2022-09-17T02:54:29;99657.75;;;11.64;100.00
14232;BME280;7200;52.194;9.900;2022-09-17T02:57:05;99645.38;;;11.65;100.00
14232;BME280;7200;52.194;9.900;2022-09-17T03:02:26;99644.34;;;11.67;100.00
14232;BME280;7200;52.194;9.900;2022-09-17T03:04:56;99651.44;;;11.67;100.00
